Time;durP1;ratioP1;P1;durP2;ratioP2;P2;SDS_P1;SDS_P2;PMS_P1;PMS_P2;Temp;Humidity;BMP_temperature;BMP_pressure;BME280_temperature;BME280_humidity;BME280_pressure;Samples;Min_cycle;Max_cycle;Signal;HPM_P1;HPM_P2
2022/01/06 00:00:35;;;;;;;4.90;1.30;;;-0.40;99.90;;;;;;5034594;28;20438;-69
2022/01/06 00:03:01;;;;;;;3.25;1.25;;;-0.40;99.90;;;;;;5034119;28;20112;-69
2022/01/06 00:05:27;;;;;;;3.72;2.00;;;-0.50;99.90;;;;;;5034476;28;20100;-69
2022/01/06 00:07:53;;;;;;;5.57;1.83;;;-0.50;99.90;;;;;;5034430;28;20045;-69
2022/01/06 00:10:19;;;;;;;4.20;1.40;;;-0.60;99.90;;;;;;5034647;28;20071;-70
2022/01/06 00:15:34;;;;;;;5.93;1.70;;;-0.60;99.90;;;;;;5034352;28;20383;-69
2022/01/06 00:25:50;;;;;;;4.00;1.80;;;-0.70;99.90;;;;;;5034175;28;20468;-69
2022/01/06 00:28:17;;;;;;;4.30;1.60;;;-0.70;99.90;;;;;;5034501;28;20063;-69
2022/01/06 00:30:43;;;;;;;4.63;1.67;;;-0.70;99.90;;;;;;5034015;28;20022;-69
2022/01/06 00:33:08;;;;;;;5.90;1.80;;;-0.70;99.90;;;;;;5033509;28;20071;-69
2022/01/06 00:35:34;;;;;;;4.07;1.48;;;-0.80;99.90;;;;;;5033588;28;20033;-70
2022/01/06 00:38:01;;;;;;;3.50;1.40;;;-0.80;99.90;;;;;;5033929;28;20017;-69
2022/01/06 00:40:27;;;;;;;3.90;1.33;;;-0.80;99.90;;;;;;5033889;28;20021;-70
2022/01/06 00:42:53;;;;;;;4.78;1.30;;;-0.80;99.90;;;;;;5033765;28;20017;-69
2022/01/06 00:45:18;;;;;;;5.22;1.30;;;-0.80;99.90;;;;;;5034040;28;20424;-69
2022/01/06 00:47:47;;;;;;;2.72;1.05;;;-0.90;99.90;;;;;;5033439;28;20036;-69
2022/01/06 00:50:12;;;;;;;4.22;1.40;;;-0.90;99.90;;;;;;5033596;28;20026;-69
2022/01/06 00:52:38;;;;;;;2.70;1.48;;;-0.90;99.90;;;;;;5033879;28;20094;-69
2022/01/06 00:55:04;;;;;;;5.97;1.48;;;-0.90;99.90;;;;;;5033950;28;20026;-69
2022/01/06 00:57:30;;;;;;;3.22;1.25;;;-0.90;99.90;;;;;;5032610;28;20116;-69
2022/01/06 00:59:56;;;;;;;5.05;1.35;;;-0.90;99.90;;;;;;5032281;28;20115;-69
2022/01/06 01:02:21;;;;;;;3.88;1.50;;;-0.90;99.90;;;;;;5033145;28;20042;-69
2022/01/06 01:04:47;;;;;;;3.75;1.20;;;-1.00;99.90;;;;;;5033831;28;20033;-69
2022/01/06 01:07:13;;;;;;;3.47;1.15;;;-1.00;99.90;;;;;;5032222;28;20028;-69
2022/01/06 01:09:39;;;;;;;2.63;1.33;;;-1.00;99.90;;;;;;5033440;28;20513;-69
2022/01/06 01:12:06;;;;;;;3.42;1.38;;;-1.00;99.90;;;;;;5033357;28;20053;-69
2022/01/06 01:14:43;;;;;;;2.05;1.48;;;-1.00;99.90;;;;;;5033385;28;20022;-69
2022/01/06 01:17:13;;;;;;;4.13;1.27;;;-1.00;99.90;;;;;;5033439;28;20080;-69
2022/01/06 01:19:39;;;;;;;3.77;1.63;;;-1.00;99.90;;;;;;5033580;28;20021;-69
2022/01/06 01:22:05;;;;;;;13.30;4.72;;;-1.00;99.90;;;;;;5033238;28;20402;-69
2022/01/06 01:24:30;;;;;;;3.45;1.98;;;-1.00;99.90;;;;;;5033576;28;20366;-69
2022/01/06 01:26:56;;;;;;;5.20;2.17;;;-1.00;99.90;;;;;;5033542;28;20370;-69
2022/01/06 01:29:22;;;;;;;2.50;1.23;;;-1.00;99.90;;;;;;5033232;28;20026;-69
2022/01/06 01:31:51;;;;;;;3.38;1.48;;;-1.00;99.90;;;;;;5033145;28;20022;-69
2022/01/06 01:34:24;;;;;;;4.32;2.17;;;-1.00;99.90;;;;;;5033004;28;20044;-69
2022/01/06 01:36:51;;;;;;;5.40;2.97;;;-1.10;99.90;;;;;;5033503;28;20071;-69
2022/01/06 01:39:17;;;;;;;7.32;3.25;;;-1.10;99.90;;;;;;5033210;28;20033;-69
2022/01/06 01:41:43;;;;;;;6.38;3.10;;;-1.10;99.90;;;;;;5033113;28;20029;-69
2022/01/06 01:44:13;;;;;;;4.10;1.70;;;-1.10;99.90;;;;;;5031839;28;20393;-69
2022/01/06 01:46:44;;;;;;;4.47;1.63;;;-1.10;99.90;;;;;;5035055;28;20470;-69
2022/01/06 01:49:31;;;;;;;2.67;1.20;;;-1.10;99.90;;;;;;5036694;28;20065;-69
2022/01/06 01:51:57;;;;;;;2.40;1.05;;;-1.10;99.90;;;;;;5037131;28;20022;-69
2022/01/06 01:54:23;;;;;;;2.53;1.17;;;-1.00;99.90;;;;;;5036965;28;20385;-69
2022/01/06 01:56:51;;;;;;;4.53;2.25;;;-1.00;99.90;;;;;;5036918;28;20025;-69
2022/01/06 01:59:16;;;;;;;2.10;1.05;;;-1.00;99.90;;;;;;5036875;28;20026;-69
2022/01/06 02:01:42;;;;;;;3.10;1.40;;;-0.90;99.90;;;;;;5036588;28;20488;-70
2022/01/06 02:04:08;;;;;;;6.85;3.22;;;-0.90;99.90;;;;;;5036487;28;20032;-69
2022/01/06 02:06:34;;;;;;;5.07;2.50;;;-0.90;99.90;;;;;;5036991;28;20120;-69
2022/01/06 02:09:01;;;;;;;4.35;1.92;;;-0.90;99.90;;;;;;5036873;28;20108;-69
2022/01/06 02:11:26;;;;;;;3.45;1.50;;;-0.80;99.90;;;;;;5036853;28;20014;-69
2022/01/06 02:13:55;;;;;;;2.83;1.02;;;-0.90;99.90;;;;;;5037085;28;20029;-69
2022/01/06 02:16:25;;;;;;;3.10;1.20;;;-0.80;99.90;;;;;;5036549;28;20017;-69
2022/01/06 02:18:52;;;;;;;1.70;1.00;;;-0.80;99.90;;;;;;5035540;28;20087;-69
2022/01/06 02:21:19;;;;;;;2.67;1.35;;;-0.80;99.90;;;;;;5036366;28;20041;-69
2022/01/06 02:23:45;;;;;;;4.07;1.70;;;-0.80;99.90;;;;;;5036379;28;20505;-69
2022/01/06 02:26:11;;;;;;;10.93;4.07;;;-0.70;99.90;;;;;;5036382;28;20034;-69
2022/01/06 02:28:37;;;;;;;4.03;1.92;;;-0.80;99.90;;;;;;5036250;28;20465;-69
2022/01/06 02:31:03;;;;;;;5.72;2.10;;;-0.80;99.90;;;;;;5036735;28;20425;-69
2022/01/06 02:33:29;;;;;;;5.25;2.22;;;-0.80;99.90;;;;;;5035956;28;20022;-69
2022/01/06 02:35:55;;;;;;;5.45;1.40;;;-0.70;99.90;;;;;;5036161;28;20071;-69
2022/01/06 02:38:22;;;;;;;5.03;1.17;;;-0.80;99.90;;;;;;5036423;28;20032;-69
2022/01/06 02:40:48;;;;;;;2.40;1.10;;;-0.80;99.90;;;;;;5036645;28;20022;-69
2022/01/06 02:43:17;;;;;;;2.97;1.10;;;-0.70;99.90;;;;;;5036012;28;20029;-69
2022/01/06 02:45:46;;;;;;;2.58;1.30;;;-0.70;99.90;;;;;;5036031;28;20025;-69
2022/01/06 02:48:14;;;;;;;4.53;1.23;;;-0.70;99.90;;;;;;5035626;28;20021;-69
2022/01/06 02:50:46;;;;;;;5.50;1.25;;;-0.70;99.90;;;;;;5035869;28;20113;-69
2022/01/06 02:53:14;;;;;;;2.63;1.00;;;-0.70;99.90;;;;;;5035904;28;20497;-69
2022/01/06 02:55:47;;;;;;;2.25;1.45;;;-0.70;99.90;;;;;;5035825;28;20029;-69
2022/01/06 02:58:13;;;;;;;2.08;1.10;;;-0.70;99.90;;;;;;5035682;28;20018;-69
2022/01/06 03:00:39;;;;;;;2.35;1.63;;;-0.70;99.90;;;;;;5035757;28;20044;-69
2022/01/06 03:03:05;;;;;;;2.53;1.00;;;-0.70;99.90;;;;;;5035305;28;20482;-69
2022/01/06 03:05:30;;;;;;;3.13;1.60;;;-0.80;99.90;;;;;;5034403;28;20049;-69
2022/01/06 03:07:56;;;;;;;3.85;1.90;;;-0.80;99.90;;;;;;5035661;28;20018;-69
2022/01/06 03:10:23;;;;;;;3.67;1.80;;;-0.80;99.90;;;;;;5035500;28;20533;-69
2022/01/06 03:12:49;;;;;;;3.58;1.58;;;-0.80;99.90;;;;;;5035438;28;20501;-69
2022/01/06 03:15:21;;;;;;;2.83;1.30;;;-0.80;99.90;;;;;;5035821;28;20393;-69
2022/01/06 03:17:53;;;;;;;2.75;1.20;;;-0.80;99.90;;;;;;5035215;28;20466;-69
2022/01/06 03:20:21;;;;;;;2.50;1.05;;;-0.80;99.90;;;;;;5035484;28;20434;-69
2022/01/06 03:22:47;;;;;;;2.10;1.00;;;-0.80;99.90;;;;;;5035301;28;20100;-69
2022/01/06 03:25:13;;;;;;;2.35;1.10;;;-0.80;99.90;;;;;;5035330;28;20499;-69
2022/01/06 03:27:41;;;;;;;3.22;1.20;;;-0.80;99.90;;;;;;5035246;28;20025;-69
2022/01/06 03:30:10;;;;;;;3.35;1.23;;;-0.70;99.90;;;;;;5035131;28;20040;-69
2022/01/06 03:32:36;;;;;;;2.75;1.30;;;-0.70;99.90;;;;;;5035083;28;20575;-69
2022/01/06 03:35:03;;;;;;;2.70;1.00;;;-0.70;99.90;;;;;;5033560;28;20110;-69
2022/01/06 03:37:29;;;;;;;2.60;1.10;;;-0.70;99.90;;;;;;5035096;28;20018;-69
2022/01/06 03:39:55;;;;;;;2.00;1.20;;;-0.60;99.90;;;;;;5035062;28;20029;-69
2022/01/06 03:42:21;;;;;;;3.35;1.25;;;-0.60;99.90;;;;;;5034900;28;20108;-69
2022/01/06 03:44:46;;;;;;;2.10;1.27;;;-0.60;99.90;;;;;;5034930;28;20152;-69
2022/01/06 03:47:12;;;;;;;2.35;1.00;;;-0.50;99.90;;;;;;5035139;28;20075;-69
2022/01/06 03:49:38;;;;;;;4.15;1.15;;;-0.50;99.90;;;;;;5034854;28;20039;-69
2022/01/06 03:52:04;;;;;;;3.53;1.48;;;-0.50;99.90;;;;;;5034789;28;20100;-69
2022/01/06 03:54:30;;;;;;;3.75;1.48;;;-0.50;99.90;;;;;;5033488;28;20022;-69
2022/01/06 03:56:57;;;;;;;2.88;1.45;;;-0.60;99.90;;;;;;5034676;28;20093;-69
2022/01/06 03:59:22;;;;;;;4.03;1.40;;;-0.60;99.90;;;;;;5034913;28;20382;-69
2022/01/06 04:01:48;;;;;;;3.20;1.27;;;-0.70;99.90;;;;;;5034374;28;20033;-69
2022/01/06 04:04:14;;;;;;;2.92;1.70;;;-0.70;99.90;;;;;;5033008;28;20509;-69
2022/01/06 04:06:40;;;;;;;4.93;2.38;;;-0.60;99.90;;;;;;5034735;28;20470;-69
2022/01/06 04:09:06;;;;;;;4.32;2.40;;;-0.60;99.90;;;;;;5033867;28;20147;-69
2022/01/06 04:11:32;;;;;;;5.55;1.98;;;-0.60;99.90;;;;;;5033308;28;20112;-69
2022/01/06 04:13:58;;;;;;;4.45;1.88;;;-0.60;99.90;;;;;;5034314;28;20040;-69
2022/01/06 04:16:26;;;;;;;3.67;1.67;;;-0.60;99.90;;;;;;5034218;28;20029;-69
2022/01/06 04:18:52;;;;;;;4.28;1.70;;;-0.60;99.90;;;;;;5033529;28;20473;-69
2022/01/06 04:21:17;;;;;;;4.38;1.88;;;-0.50;99.90;;;;;;5034356;28;20111;-69
2022/01/06 04:23:47;;;;;;;2.97;1.60;;;-0.50;99.90;;;;;;5034757;28;20481;-69
2022/01/06 04:26:13;;;;;;;2.85;1.60;;;-0.50;99.90;;;;;;5033808;28;20026;-69
2022/01/06 04:28:40;;;;;;;3.35;1.48;;;-0.50;99.90;;;;;;5034127;28;20022;-69
2022/01/06 04:31:06;;;;;;;3.67;1.70;;;-0.50;99.90;;;;;;5034063;28;20091;-69
2022/01/06 04:33:33;;;;;;;3.20;1.70;;;-0.50;99.90;;;;;;5034018;28;20482;-69
2022/01/06 04:35:59;;;;;;;4.25;1.70;;;-0.50;99.90;;;;;;5034250;28;20076;-69
2022/01/06 04:38:25;;;;;;;2.88;1.73;;;-0.50;99.90;;;;;;5033910;28;20021;-69
2022/01/06 04:40:51;;;;;;;2.85;1.77;;;-0.50;99.90;;;;;;5033956;28;20105;-69
2022/01/06 04:43:17;;;;;;;3.10;1.77;;;-0.50;99.90;;;;;;5032514;28;20047;-69
2022/01/06 04:45:43;;;;;;;2.85;1.70;;;-0.50;99.90;;;;;;5034049;28;20096;-69
2022/01/06 04:48:09;;;;;;;3.00;1.70;;;-0.50;99.90;;;;;;5033686;28;20036;-69
2022/01/06 04:50:35;;;;;;;5.30;1.80;;;-0.50;99.90;;;;;;5033722;28;20096;-69
2022/01/06 04:53:01;;;;;;;3.38;1.40;;;-0.50;99.90;;;;;;5033594;28;20048;-69
2022/01/06 04:55:26;;;;;;;3.50;1.60;;;-0.50;99.90;;;;;;5033921;28;20018;-69
2022/01/06 04:57:52;;;;;;;3.92;1.50;;;-0.50;99.90;;;;;;5033967;28;20389;-69
2022/01/06 05:00:18;;;;;;;3.28;1.70;;;-0.50;99.90;;;;;;5033655;28;20072;-69
2022/01/06 05:02:43;;;;;;;3.25;1.95;;;-0.50;99.90;;;;;;5033396;28;20145;-69
2022/01/06 05:05:13;;;;;;;3.50;1.88;;;-0.50;99.90;;;;;;5033330;28;20021;-69
2022/01/06 05:07:39;;;;;;;2.65;1.70;;;-0.50;99.90;;;;;;5033741;28;20045;-69
2022/01/06 05:10:05;;;;;;;3.72;1.80;;;-0.50;99.90;;;;;;5033436;28;20026;-69
2022/01/06 05:12:31;;;;;;;4.22;1.75;;;-0.50;99.90;;;;;;5032154;28;20060;-69
2022/01/06 05:14:57;;;;;;;2.78;1.63;;;-0.50;99.90;;;;;;5033740;28;20057;-69
2022/01/06 05:17:22;;;;;;;2.97;1.65;;;-0.50;99.90;;;;;;5033895;28;20032;-69
2022/01/06 05:19:48;;;;;;;3.05;1.90;;;-0.50;99.90;;;;;;5028105;28;20100;-69
2022/01/06 05:22:14;;;;;;;4.82;2.22;;;-0.50;99.90;;;;;;5012314;28;20052;-69
2022/01/06 05:24:39;;;;;;;3.72;2.20;;;-0.50;99.90;;;;;;5012455;28;20421;-69
2022/01/06 05:27:09;;;;;;;4.72;2.50;;;-0.50;99.90;;;;;;5012567;28;20105;-69
2022/01/06 05:29:35;;;;;;;5.40;2.45;;;-0.50;99.90;;;;;;5013791;28;20109;-69
2022/01/06 05:32:00;;;;;;;4.53;2.55;;;-0.50;99.90;;;;;;5013501;28;20458;-69
2022/01/06 05:34:26;;;;;;;4.97;2.45;;;-0.50;99.90;;;;;;5013225;28;20026;-69
2022/01/06 05:36:52;;;;;;;6.93;2.33;;;-0.60;99.90;;;;;;5013532;28;20104;-70
2022/01/06 05:39:17;;;;;;;4.90;2.10;;;-0.60;99.90;;;;;;5013596;28;20028;-69
2022/01/06 05:41:45;;;;;;;3.92;2.10;;;-0.60;99.90;;;;;;5013540;28;20101;-69
2022/01/06 05:44:11;;;;;;;3.70;2.22;;;-0.60;99.90;;;;;;5013710;28;20392;-69
2022/01/06 05:46:36;;;;;;;7.43;3.00;;;-0.60;99.90;;;;;;5032444;28;20104;-69
2022/01/06 05:49:03;;;;;;;5.18;2.50;;;-0.60;99.90;;;;;;5032900;28;20100;-69
2022/01/06 05:51:28;;;;;;;3.70;2.30;;;-0.60;99.90;;;;;;5031946;28;20028;-69
2022/01/06 05:53:54;;;;;;;3.50;2.28;;;-0.60;99.90;;;;;;5033041;28;20389;-69
2022/01/06 05:56:21;;;;;;;3.78;2.10;;;-0.60;99.90;;;;;;5022512;28;20500;-69
2022/01/06 05:58:46;;;;;;;3.33;1.95;;;-0.60;99.90;;;;;;5013277;28;20104;-69
2022/01/06 06:01:12;;;;;;;6.75;2.22;;;-0.60;99.90;;;;;;5013357;28;20533;-70
2022/01/06 06:03:37;;;;;;;4.47;2.28;;;-0.60;99.90;;;;;;5013435;28;20104;-69
2022/01/06 06:06:03;;;;;;;3.78;2.30;;;-0.50;99.90;;;;;;5013204;28;20022;-69
2022/01/06 06:08:29;;;;;;;4.25;1.80;;;-0.50;99.90;;;;;;5013212;28;20137;-69
2022/01/06 06:10:55;;;;;;;3.80;2.20;;;-0.50;99.90;;;;;;5013037;28;20045;-69
2022/01/06 06:13:22;;;;;;;3.25;2.10;;;-0.50;99.90;;;;;;5011820;28;20555;-69
2022/01/06 06:15:47;;;;;;;5.28;2.10;;;-0.50;99.90;;;;;;5011886;28;20107;-69
2022/01/06 06:18:13;;;;;;;4.32;2.10;;;-0.50;99.90;;;;;;5012865;28;20053;-69
2022/01/06 06:20:40;;;;;;;5.65;2.60;;;-0.60;99.90;;;;;;5026924;28;20022;-69
2022/01/06 06:23:06;;;;;;;4.65;2.70;;;-0.60;99.90;;;;;;5032723;28;20026;-69
2022/01/06 06:25:33;;;;;;;3.83;2.47;;;-0.70;99.90;;;;;;5033294;28;20377;-69
2022/01/06 06:27:59;;;;;;;4.70;2.50;;;-0.80;99.90;;;;;;5032698;28;20076;-69
2022/01/06 06:30:25;;;;;;;6.82;3.67;;;-0.80;99.90;;;;;;5032599;28;20061;-69
2022/01/06 06:32:51;;;;;;;9.02;4.20;;;-0.80;99.90;;;;;;5034599;28;20026;-69
2022/01/06 06:35:16;;;;;;;7.47;4.40;;;-0.80;99.90;;;;;;5035965;28;20079;-69
2022/01/06 06:37:42;;;;;;;7.13;3.80;;;-0.80;99.90;;;;;;5036458;28;20363;-69
2022/01/06 06:40:09;;;;;;;8.27;3.67;;;-0.80;99.90;;;;;;5036403;28;20092;-69
2022/01/06 06:42:35;;;;;;;5.55;3.45;;;-0.80;99.90;;;;;;5035943;28;20030;-69
2022/01/06 06:45:01;;;;;;;5.93;3.20;;;-0.70;99.90;;;;;;5036289;28;20052;-69
2022/01/06 06:47:26;;;;;;;4.82;3.38;;;-0.70;99.90;;;;;;5036051;28;20028;-69
2022/01/06 06:49:55;;;;;;;5.55;3.05;;;-0.70;99.90;;;;;;5035599;28;20025;-69
2022/01/06 06:52:21;;;;;;;6.00;2.90;;;-0.70;99.90;;;;;;5034553;28;20025;-69
2022/01/06 06:54:48;;;;;;;6.88;3.28;;;-0.60;99.90;;;;;;5035883;28;20440;-69
2022/01/06 06:57:13;;;;;;;4.50;2.70;;;-0.60;99.90;;;;;;5035852;28;20040;-69
2022/01/06 06:59:39;;;;;;;5.40;2.67;;;-0.60;99.90;;;;;;5036323;28;20453;-69
2022/01/06 07:02:05;;;;;;;4.15;2.25;;;-0.60;99.90;;;;;;5035728;28;20538;-69
2022/01/06 07:04:31;;;;;;;3.85;1.90;;;-0.60;99.90;;;;;;5035485;28;20029;-69
2022/01/06 07:06:57;;;;;;;3.75;2.33;;;-0.60;99.90;;;;;;5035657;28;20029;-69
2022/01/06 07:09:22;;;;;;;2.92;1.98;;;-0.60;99.90;;;;;;5035833;28;20021;-69
2022/01/06 07:11:48;;;;;;;3.45;2.10;;;-0.60;99.90;;;;;;5035774;28;20380;-69
2022/01/06 07:14:14;;;;;;;3.90;2.15;;;-0.60;99.90;;;;;;5035512;28;20034;-69
2022/01/06 07:16:39;;;;;;;4.13;2.38;;;-0.60;99.90;;;;;;5035763;28;20101;-69
2022/01/06 07:19:05;;;;;;;5.68;2.80;;;-0.60;99.90;;;;;;5035267;28;20393;-69
2022/01/06 07:21:31;;;;;;;3.55;2.17;;;-0.50;99.90;;;;;;5035298;28;20026;-69
2022/01/06 07:23:56;;;;;;;6.72;2.40;;;-0.50;99.90;;;;;;5035314;28;20028;-69
2022/01/06 07:26:22;;;;;;;5.30;2.28;;;-0.50;99.90;;;;;;5035332;28;20486;-69
2022/01/06 07:28:48;;;;;;;4.22;1.85;;;-0.50;99.90;;;;;;5033902;28;20115;-69
2022/01/06 07:31:14;;;;;;;4.97;2.13;;;-0.50;99.90;;;;;;5035436;28;20033;-69
2022/01/06 07:33:39;;;;;;;4.47;2.00;;;-0.50;99.90;;;;;;5034893;28;20029;-69
2022/01/06 07:36:05;;;;;;;6.43;2.70;;;-0.50;99.90;;;;;;5035079;28;20018;-69
2022/01/06 07:38:31;;;;;;;4.32;2.83;;;-0.50;99.90;;;;;;5033838;28;20025;-69
2022/01/06 07:40:57;;;;;;;4.63;2.83;;;-0.50;99.90;;;;;;5035298;28;20105;-69
2022/01/06 07:43:23;;;;;;;6.95;3.30;;;-0.50;99.90;;;;;;5033819;28;20032;-69
2022/01/06 07:45:49;;;;;;;9.13;4.40;;;-0.50;99.90;;;;;;5035056;28;20037;-69
2022/01/06 07:48:18;;;;;;;7.70;3.83;;;-0.50;99.90;;;;;;5035044;28;20026;-69
2022/01/06 07:50:45;;;;;;;7.80;3.42;;;-0.50;99.90;;;;;;5034749;28;20025;-69
2022/01/06 07:53:11;;;;;;;7.30;3.17;;;-0.50;99.90;;;;;;5033481;28;20017;-69
2022/01/06 07:55:37;;;;;;;5.20;2.58;;;-0.50;99.90;;;;;;5033458;28;20035;-69
2022/01/06 07:58:04;;;;;;;4.65;2.65;;;-0.50;99.90;;;;;;5034713;28;20013;-69
2022/01/06 08:00:30;;;;;;;4.57;2.25;;;-0.50;99.90;;;;;;5033390;28;20481;-69
2022/01/06 08:02:55;;;;;;;7.78;2.28;;;-0.50;99.90;;;;;;5034424;28;20454;-69
2022/01/06 08:05:24;;;;;;;3.83;2.15;;;-0.50;99.90;;;;;;5034308;28;20049;-69
2022/01/06 08:07:50;;;;;;;5.65;4.07;;;-0.50;99.90;;;;;;5034819;28;20025;-68
2022/01/06 08:10:16;;;;;;;5.70;4.05;;;-0.40;99.90;;;;;;5034378;28;20116;-69
2022/01/06 08:12:42;;;;;;;5.65;4.07;;;-0.40;99.90;;;;;;5034325;28;20022;-69
2022/01/06 08:15:09;;;;;;;10.27;4.50;;;-0.30;99.90;;;;;;5034337;28;20432;-69
2022/01/06 08:17:36;;;;;;;11.65;5.55;;;-0.30;99.90;;;;;;5034937;28;20025;-69
2022/01/06 08:20:06;;;;;;;18.83;8.05;;;-0.30;99.90;;;;;;5034085;28;20030;-69
2022/01/06 08:22:31;;;;;;;18.42;9.82;;;-0.30;99.90;;;;;;5034166;28;20028;-69
2022/01/06 08:24:57;;;;;;;11.07;5.30;;;-0.30;99.90;;;;;;5034191;28;20397;-69
2022/01/06 08:27:23;;;;;;;15.07;6.93;;;-0.30;99.90;;;;;;5034123;28;20032;-69
2022/01/06 08:29:51;;;;;;;9.02;4.82;;;-0.30;99.90;;;;;;5034036;28;20033;-69
2022/01/06 08:32:17;;;;;;;7.97;4.57;;;-0.30;99.90;;;;;;5033994;28;20017;-69
2022/01/06 08:34:44;;;;;;;6.93;3.45;;;-0.30;99.90;;;;;;5033728;28;20052;-68
2022/01/06 08:37:09;;;;;;;6.05;3.25;;;-0.20;99.90;;;;;;5033978;28;20053;-69
2022/01/06 08:39:35;;;;;;;6.38;2.97;;;-0.20;99.90;;;;;;5034213;28;20029;-69
2022/01/06 08:42:01;;;;;;;4.65;2.97;;;-0.10;99.90;;;;;;5033835;28;20096;-69
2022/01/06 08:44:27;;;;;;;5.18;2.67;;;-0.10;99.90;;;;;;5033844;28;20029;-69
2022/01/06 08:46:53;;;;;;;5.60;2.40;;;-0.10;99.90;;;;;;5032558;28;20056;-69
2022/01/06 08:49:19;;;;;;;5.57;2.47;;;0.00;99.90;;;;;;5032514;28;20029;-69
2022/01/06 08:51:45;;;;;;;5.68;2.22;;;0.00;99.90;;;;;;5033355;28;20057;-69
2022/01/06 08:54:11;;;;;;;5.05;2.30;;;0.10;99.90;;;;;;5033952;28;20419;-69
2022/01/06 08:56:37;;;;;;;3.85;2.00;;;0.10;99.90;;;;;;5032071;28;20397;-69
2022/01/06 08:59:04;;;;;;;5.30;2.47;;;0.10;99.90;;;;;;5033689;28;20018;-69
2022/01/06 09:01:31;;;;;;;4.50;2.40;;;0.10;99.90;;;;;;5025828;28;20048;-69
2022/01/06 09:03:57;;;;;;;4.78;2.22;;;0.20;99.90;;;;;;5013545;28;20033;-69
2022/01/06 09:06:22;;;;;;;16.23;9.90;;;0.20;99.90;;;;;;5014379;28;20466;-68
2022/01/06 09:08:48;;;;;;;25.48;12.90;;;0.30;99.90;;;;;;5014511;28;20029;-69
2022/01/06 09:11:15;;;;;;;33.20;17.58;;;0.40;99.90;;;;;;5013637;28;20057;-69
2022/01/06 09:13:41;;;;;;;7.75;4.72;;;0.40;99.90;;;;;;5014024;28;20148;-68
2022/01/06 09:16:08;;;;;;;18.05;10.02;;;0.30;99.90;;;;;;5013655;28;20018;-69
2022/01/06 09:18:37;;;;;;;9.45;5.10;;;0.30;99.90;;;;;;5013690;28;20493;-69
2022/01/06 09:21:04;;;;;;;8.38;3.90;;;0.30;99.90;;;;;;5030408;28;20079;-69
2022/01/06 09:23:30;;;;;;;7.55;4.07;;;0.40;99.90;;;;;;5033635;28;20026;-69
2022/01/06 09:25:56;;;;;;;9.50;4.32;;;0.60;99.90;;;;;;5033301;28;20029;-69
2022/01/06 09:28:21;;;;;;;7.75;3.95;;;0.70;99.90;;;;;;5033566;28;20028;-69
2022/01/06 09:30:50;;;;;;;6.30;3.58;;;0.80;99.90;;;;;;5031678;28;20094;-69
2022/01/06 09:33:16;;;;;;;8.20;4.88;;;0.90;99.90;;;;;;5031770;28;20024;-69
2022/01/06 09:35:42;;;;;;;7.93;5.65;;;0.90;99.90;;;;;;5032928;28;20017;-69
2022/01/06 09:38:09;;;;;;;10.45;4.90;;;0.90;99.90;;;;;;5031919;28;20390;-69
2022/01/06 09:40:34;;;;;;;7.30;5.22;;;0.90;99.90;;;;;;5033469;28;20029;-69
2022/01/06 09:43:01;;;;;;;7.82;4.68;;;0.90;99.90;;;;;;5033061;28;20053;-69
2022/01/06 09:45:27;;;;;;;15.57;10.13;;;0.90;99.90;;;;;;5033074;28;20029;-69
2022/01/06 09:47:53;;;;;;;26.48;19.48;;;1.00;99.90;;;;;;5033398;28;20017;-69
2022/01/06 09:50:20;;;;;;;22.55;15.60;;;1.10;99.90;;;;;;5031995;28;20448;-69
2022/01/06 09:52:47;;;;;;;18.48;11.95;;;1.10;99.90;;;;;;5033072;28;20022;-69
2022/01/06 09:55:13;;;;;;;14.90;10.82;;;1.10;99.90;;;;;;5033380;28;20489;-69
2022/01/06 09:57:38;;;;;;;27.75;18.95;;;1.00;99.90;;;;;;5031715;28;20037;-69
2022/01/06 10:00:08;;;;;;;23.52;17.58;;;1.00;99.90;;;;;;5033156;28;20030;-69
2022/01/06 10:02:35;;;;;;;24.25;16.92;;;1.00;99.90;;;;;;5032847;28;20053;-69
2022/01/06 10:05:03;;;;;;;17.55;11.75;;;1.00;99.90;;;;;;5032955;28;20033;-69
2022/01/06 10:07:35;;;;;;;8.70;6.22;;;1.00;99.90;;;;;;5034586;28;20021;-69
2022/01/06 10:10:13;;;;;;;9.48;4.80;;;0.90;99.90;;;;;;5036721;28;20414;-69
2022/01/06 10:12:40;;;;;;;9.35;5.95;;;0.90;99.90;;;;;;5034282;28;20029;-69
2022/01/06 10:15:21;;;;;;;10.80;5.13;;;0.90;99.90;;;;;;5036859;28;20022;-70
2022/01/06 10:17:47;;;;;;;9.32;4.93;;;0.90;99.90;;;;;;5036718;28;20063;-69
2022/01/06 10:20:22;;;;;;;8.27;4.78;;;0.90;99.90;;;;;;5036057;28;20033;-69
2022/01/06 10:22:53;;;;;;;12.15;5.10;;;0.80;99.90;;;;;;5043260;28;20090;-69
2022/01/06 10:25:20;;;;;;;11.32;5.40;;;0.80;99.90;;;;;;5036739;28;20041;-70
2022/01/06 10:27:46;;;;;;;9.50;5.45;;;0.70;99.90;;;;;;5036215;28;20064;-70
2022/01/06 10:30:13;;;;;;;24.20;10.90;;;0.60;99.90;;;;;;5036357;28;20053;-70
2022/01/06 10:32:40;;;;;;;33.53;15.52;;;0.50;99.90;;;;;;5036190;28;20495;-69
2022/01/06 10:35:08;;;;;;;25.90;11.75;;;0.50;99.90;;;;;;5050515;28;20389;-69
2022/01/06 10:37:42;;;;;;;20.02;9.80;;;0.50;99.90;;;;;;5056176;28;20389;-69
2022/01/06 10:40:10;;;;;;;13.95;6.90;;;0.50;99.90;;;;;;5044784;28;20108;-69
2022/01/06 10:42:39;;;;;;;15.18;10.52;;;0.50;99.90;;;;;;5036145;28;20393;-69
2022/01/06 10:45:14;;;;;;;28.02;18.23;;;0.50;99.90;;;;;;5036081;28;20061;-70
2022/01/06 10:47:42;;;;;;;20.38;13.80;;;0.50;99.90;;;;;;5036382;28;20026;-69
2022/01/06 10:50:11;;;;;;;16.10;10.60;;;0.50;99.90;;;;;;5034372;28;20025;-69
2022/01/06 10:52:39;;;;;;;10.50;6.57;;;0.50;99.90;;;;;;5034591;28;20044;-69
2022/01/06 10:55:13;;;;;;;12.02;8.77;;;0.60;99.90;;;;;;5035911;28;20025;-69
2022/01/06 10:57:58;;;;;;;11.57;7.85;;;0.60;99.90;;;;;;5036131;28;20014;-69
2022/01/06 11:00:35;;;;;;;8.32;4.90;;;0.70;99.90;;;;;;5036141;28;20057;-69
2022/01/06 11:03:11;;;;;;;7.60;4.63;;;0.70;99.90;;;;;;5035643;28;20406;-69
2022/01/06 11:05:40;;;;;;;13.32;8.25;;;0.60;99.90;;;;;;5035587;28;20029;-69
2022/01/06 11:08:07;;;;;;;12.05;9.48;;;0.70;99.90;;;;;;5045874;28;20035;-69
2022/01/06 11:10:40;;;;;;;11.95;7.63;;;0.70;99.90;;;;;;5056037;28;20017;-69
2022/01/06 11:13:06;;;;;;;11.77;7.43;;;0.70;99.90;;;;;;5055452;28;20043;-69
2022/01/06 11:15:33;;;;;;;13.75;7.38;;;0.80;99.90;;;;;;5055428;28;20481;-69
2022/01/06 11:18:01;;;;;;;5.95;3.63;;;0.80;99.90;;;;;;5053860;28;20524;-69
2022/01/06 11:20:28;;;;;;;7.30;3.83;;;0.80;99.90;;;;;;5042986;28;20473;-69
2022/01/06 11:22:56;;;;;;;6.55;3.70;;;0.80;99.90;;;;;;5035335;28;20064;-69
2022/01/06 11:25:34;;;;;;;5.13;3.17;;;0.80;99.90;;;;;;5035486;28;20101;-69
2022/01/06 11:28:02;;;;;;;6.60;3.85;;;0.80;99.90;;;;;;5035636;28;20036;-69
2022/01/06 11:30:49;;;;;;;6.10;3.97;;;0.80;99.90;;;;;;5035195;28;20029;-69
2022/01/06 11:33:15;;;;;;;6.50;3.58;;;0.80;99.90;;;;;;5035443;28;20026;-69
2022/01/06 11:35:48;;;;;;;4.90;2.75;;;0.80;99.90;;;;;;5034861;28;20126;-69
2022/01/06 11:38:15;;;;;;;4.88;2.72;;;0.70;99.90;;;;;;5035297;28;20020;-69
2022/01/06 11:40:42;;;;;;;7.97;3.47;;;0.80;99.90;;;;;;5035278;28;20409;-69
2022/01/06 11:43:08;;;;;;;7.38;4.45;;;0.80;99.90;;;;;;5034236;28;20108;-69
2022/01/06 11:45:34;;;;;;;10.50;4.32;;;0.90;99.90;;;;;;5031167;28;20112;-70
2022/01/06 11:48:07;;;;;;;6.25;3.75;;;0.90;99.90;;;;;;5035831;28;20040;-70
2022/01/06 11:50:42;;;;;;;7.53;3.95;;;0.90;99.90;;;;;;5033004;28;20025;-70
2022/01/06 11:53:09;;;;;;;7.78;4.25;;;0.90;99.90;;;;;;5031286;28;20032;-70
2022/01/06 11:55:41;;;;;;;7.50;4.07;;;0.90;99.90;;;;;;5029786;28;20041;-70
2022/01/06 11:58:09;;;;;;;7.57;4.25;;;1.00;99.90;;;;;;5033810;28;20030;-69
2022/01/06 12:00:35;;;;;;;7.18;4.25;;;1.00;99.90;;;;;;5032834;28;20030;-69
2022/01/06 12:03:02;;;;;;;5.75;4.07;;;1.00;99.90;;;;;;5034540;28;20371;-70
2022/01/06 12:05:52;;;;;;;5.97;4.07;;;1.00;99.90;;;;;;5031816;28;20486;-70
2022/01/06 12:08:19;;;;;;;6.72;3.72;;;1.00;99.90;;;;;;5019888;28;20021;-70
2022/01/06 12:10:50;;;;;;;5.45;3.60;;;1.10;99.90;;;;;;5026463;28;20025;-70
2022/01/06 12:13:17;;;;;;;5.95;4.00;;;1.10;99.90;;;;;;5028986;28;20030;-70
2022/01/06 12:15:57;;;;;;;6.85;4.03;;;1.20;99.90;;;;;;5034233;28;20029;-70
2022/01/06 12:18:26;;;;;;;6.13;4.20;;;1.30;99.90;;;;;;5031930;28;20496;-70
2022/01/06 12:20:54;;;;;;;6.78;3.78;;;1.30;99.90;;;;;;5032180;28;20025;-70
2022/01/06 12:23:21;;;;;;;6.93;4.30;;;1.40;99.90;;;;;;5033473;28;20018;-70
2022/01/06 12:26:01;;;;;;;13.05;6.32;;;1.50;99.90;;;;;;5034059;28;20033;-70
2022/01/06 12:28:28;;;;;;;10.38;6.05;;;1.50;99.90;;;;;;5034045;28;20032;-70
2022/01/06 12:31:02;;;;;;;8.65;4.93;;;1.60;99.90;;;;;;5033426;28;20057;-70
2022/01/06 12:33:30;;;;;;;4.55;3.17;;;1.60;99.90;;;;;;5033282;28;20025;-70
2022/01/06 12:35:57;;;;;;;6.35;2.95;;;1.70;99.90;;;;;;5033425;28;20477;-70
2022/01/06 12:38:31;;;;;;;3.42;1.90;;;1.80;99.90;;;;;;5033975;28;20022;-70
2022/01/06 12:40:59;;;;;;;2.72;1.25;;;1.80;99.90;;;;;;5033947;28;20025;-70
2022/01/06 12:43:28;;;;;;;2.83;1.60;;;1.80;99.90;;;;;;5033872;28;20029;-70
2022/01/06 12:46:11;;;;;;;3.42;2.10;;;1.90;99.90;;;;;;5033445;28;20045;-70
2022/01/06 12:48:42;;;;;;;4.70;2.60;;;2.00;99.90;;;;;;5033379;28;20029;-70
2022/01/06 12:51:28;;;;;;;2.70;1.75;;;2.10;99.90;;;;;;5033218;28;20485;-70
2022/01/06 12:54:15;;;;;;;3.67;1.17;;;2.10;99.90;;;;;;5033224;28;20041;-70
2022/01/06 12:56:44;;;;;;;2.85;1.30;;;2.20;99.90;;;;;;5033129;28;20048;-70
2022/01/06 12:59:24;;;;;;;2.50;1.25;;;2.20;99.90;;;;;;5033480;28;20477;-70